sensor_id;sensor_type;location;lat;lon;timestamp;P1;durP1;ratioP1;P2;durP2;ratioP2
9836;SDS011;4957;51.412;6.724;2023-04-06T00:01:31;10.50;;;6.07;;
9836;SDS011;4957;51.412;6.724;2023-04-06T00:03:57;11.30;;;7.13;;
9836;SDS011;4957;51.412;6.724;2023-04-06T00:06:22;10.33;;;6.50;;
9836;SDS011;4957;51.412;6.724;2023-04-06T00:08:48;10.47;;;6.50;;
9836;SDS011;4957;51.412;6.724;2023-04-06T00:11:14;11.10;;;6.77;;
9836;SDS011;4957;51.412;6.724;2023-04-06T00:13:41;11.63;;;6.67;;
9836;SDS011;4957;51.412;6.724;2023-04-06T00:16:07;11.10;;;7.40;;
9836;SDS011;4957;51.412;6.724;2023-04-06T00:18:33;12.90;;;7.07;;
9836;SDS011;4957;51.412;6.724;2023-04-06T00:20:59;10.57;;;6.40;;
9836;SDS011;4957;51.412;6.724;2023-04-06T00:23:25;11.70;;;6.67;;
9836;SDS011;4957;51.412;6.724;2023-04-06T00:25:50;10.10;;;6.83;;
9836;SDS011;4957;51.412;6.724;2023-04-06T00:28:16;11.30;;;6.90;;
9836;SDS011;4957;51.412;6.724;2023-04-06T00:30:42;9.10;;;6.23;;
9836;SDS011;4957;51.412;6.724;2023-04-06T00:33:08;11.33;;;6.97;;
9836;SDS011;4957;51.412;6.724;2023-04-06T00:35:34;9.93;;;6.77;;
9836;SDS011;4957;51.412;6.724;2023-04-06T00:37:59;11.73;;;7.73;;
9836;SDS011;4957;51.412;6.724;2023-04-06T00:40:25;16.23;;;7.67;;
9836;SDS011;4957;51.412;6.724;2023-04-06T00:42:53;13.53;;;7.40;;
9836;SDS011;4957;51.412;6.724;2023-04-06T00:45:19;12.50;;;7.73;;
9836;SDS011;4957;51.412;6.724;2023-04-06T00:47:45;13.63;;;7.40;;
9836;SDS011;4957;51.412;6.724;2023-04-06T00:50:11;13.93;;;7.77;;
9836;SDS011;4957;51.412;6.724;2023-04-06T00:52:37;12.03;;;7.43;;
9836;SDS011;4957;51.412;6.724;2023-04-06T00:55:03;11.83;;;7.67;;
9836;SDS011;4957;51.412;6.724;2023-04-06T00:57:30;12.10;;;7.77;;
9836;SDS011;4957;51.412;6.724;2023-04-06T00:59:56;12.57;;;7.37;;
9836;SDS011;4957;51.412;6.724;2023-04-06T01:02:23;10.93;;;7.30;;
9836;SDS011;4957;51.412;6.724;2023-04-06T01:04:50;14.57;;;8.97;;
9836;SDS011;4957;51.412;6.724;2023-04-06T01:07:16;18.10;;;9.03;;
9836;SDS011;4957;51.412;6.724;2023-04-06T01:09:42;16.80;;;10.03;;
9836;SDS011;4957;51.412;6.724;2023-04-06T01:12:08;16.60;;;9.60;;
9836;SDS011;4957;51.412;6.724;2023-04-06T01:14:33;16.87;;;9.03;;
9836;SDS011;4957;51.412;6.724;2023-04-06T01:17:00;16.33;;;8.90;;
9836;SDS011;4957;51.412;6.724;2023-04-06T01:19:26;14.97;;;9.03;;
9836;SDS011;4957;51.412;6.724;2023-04-06T01:21:52;12.87;;;8.37;;
9836;SDS011;4957;51.412;6.724;2023-04-06T01:24:18;14.67;;;8.53;;
9836;SDS011;4957;51.412;6.724;2023-04-06T01:26:44;13.23;;;7.87;;
9836;SDS011;4957;51.412;6.724;2023-04-06T01:29:10;13.67;;;8.07;;
9836;SDS011;4957;51.412;6.724;2023-04-06T01:31:36;14.27;;;7.83;;
9836;SDS011;4957;51.412;6.724;2023-04-06T01:34:02;12.77;;;7.87;;
9836;SDS011;4957;51.412;6.724;2023-04-06T01:36:28;13.20;;;7.33;;
9836;SDS011;4957;51.412;6.724;2023-04-06T01:38:53;23.47;;;11.87;;
9836;SDS011;4957;51.412;6.724;2023-04-06T01:41:20;13.57;;;8.60;;
9836;SDS011;4957;51.412;6.724;2023-04-06T01:43:46;11.07;;;7.87;;
9836;SDS011;4957;51.412;6.724;2023-04-06T01:46:12;13.90;;;8.30;;
9836;SDS011;4957;51.412;6.724;2023-04-06T01:48:38;12.43;;;7.20;;
9836;SDS011;4957;51.412;6.724;2023-04-06T01:51:04;12.40;;;7.50;;
9836;SDS011;4957;51.412;6.724;2023-04-06T01:53:30;14.27;;;8.00;;
9836;SDS011;4957;51.412;6.724;2023-04-06T01:55:55;11.23;;;7.40;;
9836;SDS011;4957;51.412;6.724;2023-04-06T01:58:21;12.10;;;7.70;;
9836;SDS011;4957;51.412;6.724;2023-04-06T02:00:47;14.87;;;8.00;;
9836;SDS011;4957;51.412;6.724;2023-04-06T02:03:12;14.03;;;7.03;;
9836;SDS011;4957;51.412;6.724;2023-04-06T02:05:39;12.03;;;7.23;;
9836;SDS011;4957;51.412;6.724;2023-04-06T02:08:05;12.70;;;7.73;;
9836;SDS011;4957;51.412;6.724;2023-04-06T02:10:31;14.93;;;7.53;;
9836;SDS011;4957;51.412;6.724;2023-04-06T02:12:58;14.60;;;8.30;;
9836;SDS011;4957;51.412;6.724;2023-04-06T02:15:23;11.20;;;7.37;;
9836;SDS011;4957;51.412;6.724;2023-04-06T02:17:50;12.13;;;7.90;;
9836;SDS011;4957;51.412;6.724;2023-04-06T02:20:16;13.87;;;8.13;;
9836;SDS011;4957;51.412;6.724;2023-04-06T02:22:42;12.40;;;7.43;;
9836;SDS011;4957;51.412;6.724;2023-04-06T02:25:08;14.37;;;8.03;;
9836;SDS011;4957;51.412;6.724;2023-04-06T02:27:34;11.97;;;7.83;;
9836;SDS011;4957;51.412;6.724;2023-04-06T02:30:01;14.00;;;7.77;;
9836;SDS011;4957;51.412;6.724;2023-04-06T02:32:27;15.37;;;8.47;;
9836;SDS011;4957;51.412;6.724;2023-04-06T02:34:53;16.13;;;8.80;;
9836;SDS011;4957;51.412;6.724;2023-04-06T02:37:19;13.27;;;8.20;;
9836;SDS011;4957;51.412;6.724;2023-04-06T02:39:45;15.40;;;9.40;;
9836;SDS011;4957;51.412;6.724;2023-04-06T02:42:11;17.03;;;9.47;;
9836;SDS011;4957;51.412;6.724;2023-04-06T02:44:37;15.20;;;8.40;;
9836;SDS011;4957;51.412;6.724;2023-04-06T02:47:02;14.50;;;8.73;;
9836;SDS011;4957;51.412;6.724;2023-04-06T02:49:28;17.53;;;9.13;;
9836;SDS011;4957;51.412;6.724;2023-04-06T02:51:54;16.20;;;8.20;;
9836;SDS011;4957;51.412;6.724;2023-04-06T02:54:19;13.20;;;8.97;;
9836;SDS011;4957;51.412;6.724;2023-04-06T02:56:45;13.37;;;8.40;;
9836;SDS011;4957;51.412;6.724;2023-04-06T02:59:11;12.70;;;8.97;;
9836;SDS011;4957;51.412;6.724;2023-04-06T03:01:36;19.50;;;8.57;;
9836;SDS011;4957;51.412;6.724;2023-04-06T03:04:02;18.00;;;9.33;;
9836;SDS011;4957;51.412;6.724;2023-04-06T03:06:28;17.47;;;9.23;;
9836;SDS011;4957;51.412;6.724;2023-04-06T03:08:54;16.50;;;9.10;;
9836;SDS011;4957;51.412;6.724;2023-04-06T03:11:19;17.57;;;9.40;;
9836;SDS011;4957;51.412;6.724;2023-04-06T03:13:45;15.77;;;8.77;;
9836;SDS011;4957;51.412;6.724;2023-04-06T03:16:11;14.63;;;9.40;;
9836;SDS011;4957;51.412;6.724;2023-04-06T03:18:37;13.73;;;8.93;;
9836;SDS011;4957;51.412;6.724;2023-04-06T03:21:03;15.87;;;9.97;;
9836;SDS011;4957;51.412;6.724;2023-04-06T03:23:28;14.93;;;9.00;;
9836;SDS011;4957;51.412;6.724;2023-04-06T03:25:54;14.93;;;9.23;;
9836;SDS011;4957;51.412;6.724;2023-04-06T03:28:20;16.50;;;9.90;;
9836;SDS011;4957;51.412;6.724;2023-04-06T03:30:46;22.23;;;9.90;;
9836;SDS011;4957;51.412;6.724;2023-04-06T03:33:12;16.07;;;9.47;;
9836;SDS011;4957;51.412;6.724;2023-04-06T03:35:37;16.33;;;9.97;;
9836;SDS011;4957;51.412;6.724;2023-04-06T03:38:03;17.40;;;9.77;;
9836;SDS011;4957;51.412;6.724;2023-04-06T03:40:30;17.80;;;8.87;;
9836;SDS011;4957;51.412;6.724;2023-04-06T03:42:56;16.00;;;9.50;;
9836;SDS011;4957;51.412;6.724;2023-04-06T03:45:22;18.80;;;9.87;;
9836;SDS011;4957;51.412;6.724;2023-04-06T03:47:48;18.50;;;10.00;;
9836;SDS011;4957;51.412;6.724;2023-04-06T03:50:14;16.60;;;9.67;;
9836;SDS011;4957;51.412;6.724;2023-04-06T03:52:39;22.13;;;10.40;;
9836;SDS011;4957;51.412;6.724;2023-04-06T03:55:06;16.33;;;9.83;;
9836;SDS011;4957;51.412;6.724;2023-04-06T03:57:32;14.97;;;9.70;;
9836;SDS011;4957;51.412;6.724;2023-04-06T03:59:58;19.27;;;10.63;;
9836;SDS011;4957;51.412;6.724;2023-04-06T04:02:24;16.80;;;9.90;;
9836;SDS011;4957;51.412;6.724;2023-04-06T04:04:49;22.67;;;10.83;;
9836;SDS011;4957;51.412;6.724;2023-04-06T04:07:15;19.47;;;9.70;;
9836;SDS011;4957;51.412;6.724;2023-04-06T04:09:41;18.07;;;9.90;;
9836;SDS011;4957;51.412;6.724;2023-04-06T04:12:07;15.67;;;9.93;;
9836;SDS011;4957;51.412;6.724;2023-04-06T04:14:32;18.73;;;10.00;;
9836;SDS011;4957;51.412;6.724;2023-04-06T04:16:58;21.73;;;9.73;;
9836;SDS011;4957;51.412;6.724;2023-04-06T04:19:24;16.93;;;9.77;;
9836;SDS011;4957;51.412;6.724;2023-04-06T04:21:50;14.97;;;9.20;;
9836;SDS011;4957;51.412;6.724;2023-04-06T04:24:15;16.13;;;9.50;;
9836;SDS011;4957;51.412;6.724;2023-04-06T04:26:41;14.53;;;9.27;;
9836;SDS011;4957;51.412;6.724;2023-04-06T04:29:07;13.10;;;9.13;;
9836;SDS011;4957;51.412;6.724;2023-04-06T04:31:33;15.70;;;10.20;;
9836;SDS011;4957;51.412;6.724;2023-04-06T04:33:59;14.40;;;9.53;;
9836;SDS011;4957;51.412;6.724;2023-04-06T04:36:25;14.77;;;9.27;;
9836;SDS011;4957;51.412;6.724;2023-04-06T04:38:54;15.90;;;10.00;;
9836;SDS011;4957;51.412;6.724;2023-04-06T04:41:20;17.57;;;9.47;;
9836;SDS011;4957;51.412;6.724;2023-04-06T04:43:45;18.27;;;9.93;;
9836;SDS011;4957;51.412;6.724;2023-04-06T04:46:11;15.73;;;10.13;;
9836;SDS011;4957;51.412;6.724;2023-04-06T04:48:37;18.40;;;9.60;;
9836;SDS011;4957;51.412;6.724;2023-04-06T04:51:03;18.73;;;9.60;;
9836;SDS011;4957;51.412;6.724;2023-04-06T04:53:29;14.83;;;9.07;;
9836;SDS011;4957;51.412;6.724;2023-04-06T04:55:55;15.10;;;9.30;;
9836;SDS011;4957;51.412;6.724;2023-04-06T04:58:21;17.87;;;9.87;;
9836;SDS011;4957;51.412;6.724;2023-04-06T05:00:46;15.47;;;10.17;;
9836;SDS011;4957;51.412;6.724;2023-04-06T05:03:23;18.90;;;9.73;;
9836;SDS011;4957;51.412;6.724;2023-04-06T05:05:50;16.97;;;9.07;;
9836;SDS011;4957;51.412;6.724;2023-04-06T05:08:16;22.87;;;9.17;;
9836;SDS011;4957;51.412;6.724;2023-04-06T05:10:42;17.73;;;9.57;;
9836;SDS011;4957;51.412;6.724;2023-04-06T05:13:09;13.77;;;8.87;;
9836;SDS011;4957;51.412;6.724;2023-04-06T05:15:35;16.47;;;8.87;;
9836;SDS011;4957;51.412;6.724;2023-04-06T05:18:03;18.50;;;9.20;;
9836;SDS011;4957;51.412;6.724;2023-04-06T05:20:29;15.33;;;9.23;;
9836;SDS011;4957;51.412;6.724;2023-04-06T05:22:55;18.73;;;9.13;;
9836;SDS011;4957;51.412;6.724;2023-04-06T05:25:21;22.90;;;9.10;;
9836;SDS011;4957;51.412;6.724;2023-04-06T05:27:47;33.53;;;10.03;;
9836;SDS011;4957;51.412;6.724;2023-04-06T05:30:12;10.57;;;7.40;;
9836;SDS011;4957;51.412;6.724;2023-04-06T05:32:38;14.67;;;8.63;;
9836;SDS011;4957;51.412;6.724;2023-04-06T05:35:04;12.17;;;7.73;;
9836;SDS011;4957;51.412;6.724;2023-04-06T05:37:30;15.47;;;8.00;;
9836;SDS011;4957;51.412;6.724;2023-04-06T05:39:56;21.10;;;8.63;;
9836;SDS011;4957;51.412;6.724;2023-04-06T05:42:22;14.23;;;8.37;;
9836;SDS011;4957;51.412;6.724;2023-04-06T05:44:48;12.47;;;7.20;;
9836;SDS011;4957;51.412;6.724;2023-04-06T05:47:14;13.80;;;7.47;;
9836;SDS011;4957;51.412;6.724;2023-04-06T05:49:41;12.80;;;7.73;;
9836;SDS011;4957;51.412;6.724;2023-04-06T05:52:08;14.27;;;8.50;;
9836;SDS011;4957;51.412;6.724;2023-04-06T05:54:35;13.77;;;8.20;;
9836;SDS011;4957;51.412;6.724;2023-04-06T05:57:01;14.47;;;9.23;;
9836;SDS011;4957;51.412;6.724;2023-04-06T05:59:28;17.63;;;8.20;;
9836;SDS011;4957;51.412;6.724;2023-04-06T06:01:55;14.67;;;7.97;;
9836;SDS011;4957;51.412;6.724;2023-04-06T06:04:21;17.27;;;8.13;;
9836;SDS011;4957;51.412;6.724;2023-04-06T06:06:46;13.40;;;7.77;;
9836;SDS011;4957;51.412;6.724;2023-04-06T06:09:12;14.30;;;7.13;;
9836;SDS011;4957;51.412;6.724;2023-04-06T06:11:38;10.43;;;6.73;;
9836;SDS011;4957;51.412;6.724;2023-04-06T06:14:03;16.30;;;7.57;;
9836;SDS011;4957;51.412;6.724;2023-04-06T06:16:30;11.03;;;6.47;;
9836;SDS011;4957;51.412;6.724;2023-04-06T06:18:55;10.67;;;6.83;;
9836;SDS011;4957;51.412;6.724;2023-04-06T06:21:21;14.43;;;7.23;;
9836;SDS011;4957;51.412;6.724;2023-04-06T06:23:47;9.63;;;6.27;;
9836;SDS011;4957;51.412;6.724;2023-04-06T06:26:15;12.23;;;6.50;;
9836;SDS011;4957;51.412;6.724;2023-04-06T06:28:47;10.27;;;6.23;;
9836;SDS011;4957;51.412;6.724;2023-04-06T06:31:15;10.33;;;6.17;;
9836;SDS011;4957;51.412;6.724;2023-04-06T06:33:48;9.33;;;5.80;;
9836;SDS011;4957;51.412;6.724;2023-04-06T06:36:17;9.20;;;6.03;;
9836;SDS011;4957;51.412;6.724;2023-04-06T06:38:43;13.87;;;6.27;;
9836;SDS011;4957;51.412;6.724;2023-04-06T06:41:10;12.67;;;6.23;;
9836;SDS011;4957;51.412;6.724;2023-04-06T06:43:36;77.30;;;10.40;;
9836;SDS011;4957;51.412;6.724;2023-04-06T06:46:02;10.23;;;5.90;;
9836;SDS011;4957;51.412;6.724;2023-04-06T06:48:28;8.10;;;5.73;;
9836;SDS011;4957;51.412;6.724;2023-04-06T06:50:54;11.40;;;5.30;;
9836;SDS011;4957;51.412;6.724;2023-04-06T06:53:20;10.50;;;6.23;;
9836;SDS011;4957;51.412;6.724;2023-04-06T06:55:46;8.10;;;5.60;;
9836;SDS011;4957;51.412;6.724;2023-04-06T06:58:13;9.33;;;6.40;;
9836;SDS011;4957;51.412;6.724;2023-04-06T07:00:40;7.57;;;5.60;;
9836;SDS011;4957;51.412;6.724;2023-04-06T07:03:06;9.97;;;5.60;;
9836;SDS011;4957;51.412;6.724;2023-04-06T07:05:31;8.57;;;5.87;;
9836;SDS011;4957;51.412;6.724;2023-04-06T07:07:57;9.57;;;5.80;;
9836;SDS011;4957;51.412;6.724;2023-04-06T07:10:23;9.93;;;5.30;;
9836;SDS011;4957;51.412;6.724;2023-04-06T07:12:49;11.40;;;5.53;;
9836;SDS011;4957;51.412;6.724;2023-04-06T07:15:16;8.00;;;5.37;;
9836;SDS011;4957;51.412;6.724;2023-04-06T07:17:41;9.27;;;5.97;;
9836;SDS011;4957;51.412;6.724;2023-04-06T07:20:10;9.60;;;5.70;;
9836;SDS011;4957;51.412;6.724;2023-04-06T07:22:37;6.63;;;5.07;;
9836;SDS011;4957;51.412;6.724;2023-04-06T07:25:08;7.30;;;5.23;;
9836;SDS011;4957;51.412;6.724;2023-04-06T07:27:34;9.43;;;5.87;;
9836;SDS011;4957;51.412;6.724;2023-04-06T07:29:59;16.03;;;6.27;;
9836;SDS011;4957;51.412;6.724;2023-04-06T07:32:25;11.20;;;5.37;;
9836;SDS011;4957;51.412;6.724;2023-04-06T07:34:51;8.60;;;6.20;;
9836;SDS011;4957;51.412;6.724;2023-04-06T07:37:16;9.27;;;6.10;;
9836;SDS011;4957;51.412;6.724;2023-04-06T07:39:42;9.03;;;5.57;;
9836;SDS011;4957;51.412;6.724;2023-04-06T07:42:08;8.67;;;5.73;;
9836;SDS011;4957;51.412;6.724;2023-04-06T07:44:34;12.80;;;5.53;;
9836;SDS011;4957;51.412;6.724;2023-04-06T07:46:59;8.73;;;5.77;;
9836;SDS011;4957;51.412;6.724;2023-04-06T07:49:25;9.77;;;5.50;;
9836;SDS011;4957;51.412;6.724;2023-04-06T07:51:51;10.77;;;5.67;;
9836;SDS011;4957;51.412;6.724;2023-04-06T07:54:17;9.80;;;5.40;;
9836;SDS011;4957;51.412;6.724;2023-04-06T07:56:42;8.73;;;5.53;;
9836;SDS011;4957;51.412;6.724;2023-04-06T07:59:08;8.13;;;5.77;;
9836;SDS011;4957;51.412;6.724;2023-04-06T08:01:36;9.00;;;6.17;;
9836;SDS011;4957;51.412;6.724;2023-04-06T08:04:01;8.87;;;6.20;;
9836;SDS011;4957;51.412;6.724;2023-04-06T08:06:27;12.67;;;6.37;;
9836;SDS011;4957;51.412;6.724;2023-04-06T08:08:53;9.03;;;5.97;;
9836;SDS011;4957;51.412;6.724;2023-04-06T08:11:19;9.27;;;6.10;;
9836;SDS011;4957;51.412;6.724;2023-04-06T08:13:45;9.97;;;6.37;;
9836;SDS011;4957;51.412;6.724;2023-04-06T08:16:11;12.03;;;6.40;;
9836;SDS011;4957;51.412;6.724;2023-04-06T08:18:37;11.53;;;7.00;;
9836;SDS011;4957;51.412;6.724;2023-04-06T08:21:03;11.37;;;7.00;;
9836;SDS011;4957;51.412;6.724;2023-04-06T08:23:28;13.13;;;7.13;;
9836;SDS011;4957;51.412;6.724;2023-04-06T08:25:54;9.50;;;6.10;;
9836;SDS011;4957;51.412;6.724;2023-04-06T08:28:21;12.80;;;6.53;;
9836;SDS011;4957;51.412;6.724;2023-04-06T08:30:47;10.07;;;6.43;;
9836;SDS011;4957;51.412;6.724;2023-04-06T08:33:12;13.90;;;6.43;;
9836;SDS011;4957;51.412;6.724;2023-04-06T08:35:38;9.03;;;6.50;;
9836;SDS011;4957;51.412;6.724;2023-04-06T08:38:04;12.20;;;6.33;;
9836;SDS011;4957;51.412;6.724;2023-04-06T08:40:35;12.97;;;6.43;;
9836;SDS011;4957;51.412;6.724;2023-04-06T08:43:06;10.60;;;6.50;;
9836;SDS011;4957;51.412;6.724;2023-04-06T08:45:35;11.83;;;7.43;;
9836;SDS011;4957;51.412;6.724;2023-04-06T08:48:00;11.77;;;7.90;;
9836;SDS011;4957;51.412;6.724;2023-04-06T08:50:29;10.47;;;7.10;;
9836;SDS011;4957;51.412;6.724;2023-04-06T08:52:55;11.93;;;7.43;;
9836;SDS011;4957;51.412;6.724;2023-04-06T08:55:22;14.63;;;7.27;;
9836;SDS011;4957;51.412;6.724;2023-04-06T08:57:48;11.53;;;7.33;;
9836;SDS011;4957;51.412;6.724;2023-04-06T09:00:18;11.13;;;7.37;;
9836;SDS011;4957;51.412;6.724;2023-04-06T09:02:45;13.93;;;7.57;;
9836;SDS011;4957;51.412;6.724;2023-04-06T09:05:12;15.27;;;7.50;;
9836;SDS011;4957;51.412;6.724;2023-04-06T09:07:38;12.57;;;7.80;;
9836;SDS011;4957;51.412;6.724;2023-04-06T09:10:04;15.07;;;8.37;;
9836;SDS011;4957;51.412;6.724;2023-04-06T09:12:31;11.13;;;7.50;;
9836;SDS011;4957;51.412;6.724;2023-04-06T09:14:57;10.13;;;8.10;;
9836;SDS011;4957;51.412;6.724;2023-04-06T09:17:25;11.80;;;8.23;;
9836;SDS011;4957;51.412;6.724;2023-04-06T09:19:52;13.57;;;8.07;;
9836;SDS011;4957;51.412;6.724;2023-04-06T09:22:18;13.17;;;8.13;;
9836;SDS011;4957;51.412;6.724;2023-04-06T09:24:46;16.13;;;8.07;;
9836;SDS011;4957;51.412;6.724;2023-04-06T09:27:13;10.83;;;8.80;;
9836;SDS011;4957;51.412;6.724;2023-04-06T09:29:43;11.77;;;8.20;;
9836;SDS011;4957;51.412;6.724;2023-04-06T09:32:09;15.23;;;9.33;;
9836;SDS011;4957;51.412;6.724;2023-04-06T09:34:39;16.20;;;8.80;;
9836;SDS011;4957;51.412;6.724;2023-04-06T09:37:17;16.33;;;8.50;;
9836;SDS011;4957;51.412;6.724;2023-04-06T09:39:44;13.17;;;9.13;;
9836;SDS011;4957;51.412;6.724;2023-04-06T09:42:26;17.83;;;8.73;;
9836;SDS011;4957;51.412;6.724;2023-04-06T09:44:51;13.10;;;9.30;;
9836;SDS011;4957;51.412;6.724;2023-04-06T09:47:17;13.20;;;9.17;;
9836;SDS011;4957;51.412;6.724;2023-04-06T09:49:43;19.87;;;8.97;;
9836;SDS011;4957;51.412;6.724;2023-04-06T09:52:11;15.57;;;9.80;;
9836;SDS011;4957;51.412;6.724;2023-04-06T09:54:37;15.90;;;9.67;;
9836;SDS011;4957;51.412;6.724;2023-04-06T09:59:52;16.10;;;9.30;;
9836;SDS011;4957;51.412;6.724;2023-04-06T10:05:13;14.50;;;9.60;;
9836;SDS011;4957;51.412;6.724;2023-04-06T10:07:41;17.73;;;9.43;;
9836;SDS011;4957;51.412;6.724;2023-04-06T10:10:07;13.67;;;9.20;;
9836;SDS011;4957;51.412;6.724;2023-04-06T10:12:35;14.03;;;9.30;;
9836;SDS011;4957;51.412;6.724;2023-04-06T10:15:03;13.67;;;8.93;;
9836;SDS011;4957;51.412;6.724;2023-04-06T10:17:29;16.40;;;9.40;;
9836;SDS011;4957;51.412;6.724;2023-04-06T10:19:55;21.57;;;11.27;;
9836;SDS011;4957;51.412;6.724;2023-04-06T10:23:08;19.70;;;10.33;;
9836;SDS011;4957;51.412;6.724;2023-04-06T10:25:57;17.00;;;9.93;;
9836;SDS011;4957;51.412;6.724;2023-04-06T10:28:24;14.17;;;9.30;;
9836;SDS011;4957;51.412;6.724;2023-04-06T10:30:56;16.87;;;8.67;;
9836;SDS011;4957;51.412;6.724;2023-04-06T10:33:23;14.97;;;9.10;;
9836;SDS011;4957;51.412;6.724;2023-04-06T10:35:49;16.80;;;9.53;;
9836;SDS011;4957;51.412;6.724;2023-04-06T10:38:15;16.40;;;9.47;;
9836;SDS011;4957;51.412;6.724;2023-04-06T10:40:45;16.90;;;9.67;;
9836;SDS011;4957;51.412;6.724;2023-04-06T10:43:21;19.17;;;9.97;;
9836;SDS011;4957;51.412;6.724;2023-04-06T10:45:54;13.60;;;8.87;;
9836;SDS011;4957;51.412;6.724;2023-04-06T10:48:21;20.70;;;10.17;;
9836;SDS011;4957;51.412;6.724;2023-04-06T10:50:49;18.90;;;11.30;;
9836;SDS011;4957;51.412;6.724;2023-04-06T10:53:25;16.13;;;10.60;;
9836;SDS011;4957;51.412;6.724;2023-04-06T10:55:53;17.27;;;10.70;;
9836;SDS011;4957;51.412;6.724;2023-04-06T10:58:20;17.80;;;10.60;;
9836;SDS011;4957;51.412;6.724;2023-04-06T11:00:50;18.27;;;10.53;;
9836;SDS011;4957;51.412;6.724;2023-04-06T11:03:16;20.83;;;12.57;;
9836;SDS011;4957;51.412;6.724;2023-04-06T11:05:43;20.27;;;11.73;;
9836;SDS011;4957;51.412;6.724;2023-04-06T11:08:23;17.50;;;10.80;;
9836;SDS011;4957;51.412;6.724;2023-04-06T11:16:05;21.13;;;12.47;;
9836;SDS011;4957;51.412;6.724;2023-04-06T11:18:31;18.70;;;11.30;;
9836;SDS011;4957;51.412;6.724;2023-04-06T11:20:57;19.47;;;10.87;;
9836;SDS011;4957;51.412;6.724;2023-04-06T11:23:26;14.93;;;9.80;;
9836;SDS011;4957;51.412;6.724;2023-04-06T11:25:52;17.27;;;10.30;;
9836;SDS011;4957;51.412;6.724;2023-04-06T11:28:19;21.53;;;10.53;;
9836;SDS011;4957;51.412;6.724;2023-04-06T11:30:45;16.10;;;10.43;;
9836;SDS011;4957;51.412;6.724;2023-04-06T11:33:19;18.13;;;10.33;;
9836;SDS011;4957;51.412;6.724;2023-04-06T11:35:46;19.03;;;11.40;;
9836;SDS011;4957;51.412;6.724;2023-04-06T11:38:12;17.47;;;11.33;;
9836;SDS011;4957;51.412;6.724;2023-04-06T11:40:37;16.20;;;10.50;;
9836;SDS011;4957;51.412;6.724;2023-04-06T11:43:03;21.17;;;10.53;;
9836;SDS011;4957;51.412;6.724;2023-04-06T11:45:41;18.13;;;10.33;;
9836;SDS011;4957;51.412;6.724;2023-04-06T11:48:17;16.60;;;10.43;;
9836;SDS011;4957;51.412;6.724;2023-04-06T11:50:45;14.53;;;9.77;;
9836;SDS011;4957;51.412;6.724;2023-04-06T11:53:12;17.70;;;9.70;;
9836;SDS011;4957;51.412;6.724;2023-04-06T11:55:38;18.00;;;10.40;;
9836;SDS011;4957;51.412;6.724;2023-04-06T11:58:05;17.83;;;9.20;;
9836;SDS011;4957;51.412;6.724;2023-04-06T12:00:31;18.70;;;10.90;;
9836;SDS011;4957;51.412;6.724;2023-04-06T12:02:59;17.83;;;10.23;;
9836;SDS011;4957;51.412;6.724;2023-04-06T12:05:26;16.17;;;10.07;;
9836;SDS011;4957;51.412;6.724;2023-04-06T12:07:52;18.07;;;10.10;;
9836;SDS011;4957;51.412;6.724;2023-04-06T12:10:19;18.57;;;9.83;;
9836;SDS011;4957;51.412;6.724;2023-04-06T12:12:44;20.40;;;10.33;;
9836;SDS011;4957;51.412;6.724;2023-04-06T12:15:11;19.07;;;10.23;;
9836;SDS011;4957;51.412;6.724;2023-04-06T12:17:36;16.13;;;10.63;;
9836;SDS011;4957;51.412;6.724;2023-04-06T12:20:02;15.17;;;9.77;;
9836;SDS011;4957;51.412;6.724;2023-04-06T12:22:28;17.60;;;10.70;;
9836;SDS011;4957;51.412;6.724;2023-04-06T12:24:54;19.23;;;10.23;;
9836;SDS011;4957;51.412;6.724;2023-04-06T12:27:20;20.27;;;10.60;;
9836;SDS011;4957;51.412;6.724;2023-04-06T12:29:46;16.80;;;10.43;;
9836;SDS011;4957;51.412;6.724;2023-04-06T12:32:12;15.97;;;10.37;;
9836;SDS011;4957;51.412;6.724;2023-04-06T12:34:38;16.57;;;10.30;;
9836;SDS011;4957;51.412;6.724;2023-04-06T12:37:04;19.23;;;9.83;;
9836;SDS011;4957;51.412;6.724;2023-04-06T12:39:30;16.17;;;9.97;;
9836;SDS011;4957;51.412;6.724;2023-04-06T12:41:55;15.50;;;10.23;;
9836;SDS011;4957;51.412;6.724;2023-04-06T12:44:22;14.40;;;9.43;;
9836;SDS011;4957;51.412;6.724;2023-04-06T12:46:48;14.67;;;9.27;;
9836;SDS011;4957;51.412;6.724;2023-04-06T12:49:15;12.27;;;8.27;;
9836;SDS011;4957;51.412;6.724;2023-04-06T12:51:43;11.27;;;7.53;;
9836;SDS011;4957;51.412;6.724;2023-04-06T12:54:09;10.87;;;7.20;;
9836;SDS011;4957;51.412;6.724;2023-04-06T12:56:36;9.20;;;6.57;;
9836;SDS011;4957;51.412;6.724;2023-04-06T12:59:01;9.03;;;6.03;;
9836;SDS011;4957;51.412;6.724;2023-04-06T13:01:27;8.47;;;6.03;;
9836;SDS011;4957;51.412;6.724;2023-04-06T13:03:53;9.97;;;6.50;;
9836;SDS011;4957;51.412;6.724;2023-04-06T13:06:19;9.20;;;6.50;;
9836;SDS011;4957;51.412;6.724;2023-04-06T13:08:45;10.90;;;6.17;;
9836;SDS011;4957;51.412;6.724;2023-04-06T13:11:12;8.20;;;5.77;;
9836;SDS011;4957;51.412;6.724;2023-04-06T13:13:38;7.63;;;5.57;;
9836;SDS011;4957;51.412;6.724;2023-04-06T13:16:04;9.07;;;5.47;;
9836;SDS011;4957;51.412;6.724;2023-04-06T13:18:34;6.57;;;5.10;;
9836;SDS011;4957;51.412;6.724;2023-04-06T13:21:01;8.90;;;5.57;;
9836;SDS011;4957;51.412;6.724;2023-04-06T13:23:27;8.77;;;5.77;;
9836;SDS011;4957;51.412;6.724;2023-04-06T13:26:11;8.13;;;6.07;;
9836;SDS011;4957;51.412;6.724;2023-04-06T13:28:38;10.60;;;5.63;;
9836;SDS011;4957;51.412;6.724;2023-04-06T13:31:04;8.97;;;5.80;;
9836;SDS011;4957;51.412;6.724;2023-04-06T13:33:31;7.83;;;4.73;;
9836;SDS011;4957;51.412;6.724;2023-04-06T13:35:58;8.77;;;5.23;;
9836;SDS011;4957;51.412;6.724;2023-04-06T13:38:27;7.00;;;5.20;;
9836;SDS011;4957;51.412;6.724;2023-04-06T13:41:26;8.10;;;5.67;;
9836;SDS011;4957;51.412;6.724;2023-04-06T13:43:46;7.00;;;5.20;;
9836;SDS011;4957;51.412;6.724;2023-04-06T13:46:12;9.50;;;6.27;;
9836;SDS011;4957;51.412;6.724;2023-04-06T13:48:38;11.40;;;7.00;;
9836;SDS011;4957;51.412;6.724;2023-04-06T13:51:08;7.30;;;5.80;;
9836;SDS011;4957;51.412;6.724;2023-04-06T13:53:38;13.13;;;7.40;;
9836;SDS011;4957;51.412;6.724;2023-04-06T13:56:04;12.20;;;6.37;;
9836;SDS011;4957;51.412;6.724;2023-04-06T13:58:30;8.33;;;6.30;;
9836;SDS011;4957;51.412;6.724;2023-04-06T14:01:01;13.77;;;7.17;;
9836;SDS011;4957;51.412;6.724;2023-04-06T14:03:28;12.80;;;8.20;;
9836;SDS011;4957;51.412;6.724;2023-04-06T14:05:54;10.90;;;7.43;;
9836;SDS011;4957;51.412;6.724;2023-04-06T14:08:19;11.40;;;7.00;;
9836;SDS011;4957;51.412;6.724;2023-04-06T14:10:45;11.83;;;5.97;;
9836;SDS011;4957;51.412;6.724;2023-04-06T14:13:11;7.13;;;4.80;;
9836;SDS011;4957;51.412;6.724;2023-04-06T14:15:37;9.97;;;5.70;;
9836;SDS011;4957;51.412;6.724;2023-04-06T14:18:03;7.17;;;5.00;;
9836;SDS011;4957;51.412;6.724;2023-04-06T14:20:30;8.93;;;6.17;;
9836;SDS011;4957;51.412;6.724;2023-04-06T14:22:56;8.70;;;5.30;;
9836;SDS011;4957;51.412;6.724;2023-04-06T14:25:24;9.13;;;5.70;;
9836;SDS011;4957;51.412;6.724;2023-04-06T14:27:50;8.00;;;6.70;;
9836;SDS011;4957;51.412;6.724;2023-04-06T14:30:16;7.30;;;6.03;;
9836;SDS011;4957;51.412;6.724;2023-04-06T14:32:42;7.37;;;5.80;;
9836;SDS011;4957;51.412;6.724;2023-04-06T14:35:07;11.03;;;6.37;;
9836;SDS011;4957;51.412;6.724;2023-04-06T14:37:33;8.60;;;6.37;;
9836;SDS011;4957;51.412;6.724;2023-04-06T14:39:59;10.63;;;6.10;;
9836;SDS011;4957;51.412;6.724;2023-04-06T14:42:25;9.10;;;6.37;;
9836;SDS011;4957;51.412;6.724;2023-04-06T14:44:51;10.20;;;6.43;;
9836;SDS011;4957;51.412;6.724;2023-04-06T14:47:18;10.20;;;7.13;;
9836;SDS011;4957;51.412;6.724;2023-04-06T14:49:46;9.20;;;6.57;;
9836;SDS011;4957;51.412;6.724;2023-04-06T14:52:14;9.50;;;7.03;;
9836;SDS011;4957;51.412;6.724;2023-04-06T14:54:40;9.83;;;7.03;;
9836;SDS011;4957;51.412;6.724;2023-04-06T14:57:06;8.37;;;6.67;;
9836;SDS011;4957;51.412;6.724;2023-04-06T14:59:31;9.87;;;6.73;;
9836;SDS011;4957;51.412;6.724;2023-04-06T15:01:58;12.23;;;6.77;;
9836;SDS011;4957;51.412;6.724;2023-04-06T15:04:25;9.90;;;6.77;;
9836;SDS011;4957;51.412;6.724;2023-04-06T15:06:50;9.33;;;6.53;;
9836;SDS011;4957;51.412;6.724;2023-04-06T15:09:16;9.60;;;6.93;;
9836;SDS011;4957;51.412;6.724;2023-04-06T15:11:42;8.20;;;6.23;;